Time;durP1;ratioP1;P1;durP2;ratioP2;P2;SDS_P1;SDS_P2;PMS_P1;PMS_P2;Temp;Humidity;BMP_temperature;BMP_pressure;BME280_temperature;BME280_humidity;BME280_pressure;Samples;Min_cycle;Max_cycle;Signal;HPM_P1;HPM_P2
2023/09/24 00:01:13;;;;;;;6.07;1.57;;;;;;;;;;6239058;22;20386;-95
2023/09/24 00:03:39;;;;;;;2.03;1.27;;;;;;;;;;6236606;22;20419;-94
2023/09/24 00:06:07;;;;;;;1.93;1.70;;;;;;;;;;6237867;22;20445;-94
2023/09/24 00:08:33;;;;;;;1.70;1.50;;;;;;;;;;6236299;22;20389;-93
2023/09/24 00:10:59;;;;;;;3.20;1.60;;;;;;;;;;6240885;22;20389;-93
2023/09/24 00:13:25;;;;;;;1.80;1.60;;;;;;;;;;6238986;22;20385;-94
2023/09/24 00:15:52;;;;;;;4.50;1.70;;;;;;;;;;6238746;22;20385;-94
2023/09/24 00:18:18;;;;;;;1.37;1.13;;;;;;;;;;6239368;22;20421;-93
2023/09/24 00:20:44;;;;;;;1.43;1.33;;;;;;;;;;6239988;22;20401;-94
2023/09/24 00:23:11;;;;;;;1.97;1.47;;;;;;;;;;6239891;22;20392;-93
2023/09/24 00:25:45;;;;;;;1.77;1.30;;;;;;;;;;6241193;22;20378;-93
2023/09/24 00:28:11;;;;;;;1.83;1.60;;;;;;;;;;6291245;22;20785;-92
2023/09/24 00:30:37;;;;;;;2.23;1.43;;;;;;;;;;6239111;22;20381;-93
2023/09/24 00:33:05;;;;;;;7.93;1.47;;;;;;;;;;6262932;22;20389;-93
2023/09/24 00:35:31;;;;;;;8.20;1.77;;;;;;;;;;6237255;22;20377;-94
2023/09/24 00:37:59;;;;;;;2.30;1.73;;;;;;;;;;6238166;22;20386;-95
2023/09/24 00:40:25;;;;;;;1.97;1.57;;;;;;;;;;6239284;22;20428;-94
2023/09/24 00:42:53;;;;;;;1.77;1.67;;;;;;;;;;6201419;23;20439;-94
2023/09/24 00:45:21;;;;;;;2.07;1.70;;;;;;;;;;6177144;23;20399;-94
2023/09/24 00:47:48;;;;;;;2.63;1.50;;;;;;;;;;6174974;23;20421;-94
2023/09/24 00:50:15;;;;;;;3.13;2.07;;;;;;;;;;6176697;23;20387;-94
2023/09/24 00:52:44;;;;;;;2.70;1.90;;;;;;;;;;6138843;23;20412;-94
2023/09/24 00:55:16;;;;;;;2.00;1.50;;;;;;;;;;6090070;23;20584;-94
2023/09/24 00:57:42;;;;;;;2.83;1.77;;;;;;;;;;6086011;23;20391;-93
2023/09/24 01:00:17;;;;;;;3.97;1.90;;;;;;;;;;6058409;23;20426;-92
2023/09/24 01:02:49;;;;;;;3.43;1.53;;;;;;;;;;6060090;23;20386;-94
2023/09/24 01:05:18;;;;;;;4.40;1.57;;;;;;;;;;6058495;23;20390;-93
2023/09/24 01:07:45;;;;;;;4.90;1.40;;;;;;;;;;6060314;23;20403;-93
2023/09/24 01:10:14;;;;;;;2.20;1.90;;;;;;;;;;6061148;23;20390;-94
2023/09/24 01:12:40;;;;;;;1.60;1.50;;;;;;;;;;6061674;23;20418;-92
2023/09/24 01:15:13;;;;;;;5.10;1.90;;;;;;;;;;6142060;23;20381;-94
2023/09/24 01:17:39;;;;;;;2.00;1.37;;;;;;;;;;6139236;23;20385;-93
2023/09/24 01:20:12;;;;;;;1.90;1.70;;;;;;;;;;6140893;23;20477;-93
2023/09/24 01:22:43;;;;;;;3.63;1.67;;;;;;;;;;6172416;23;20449;-93
2023/09/24 01:25:09;;;;;;;1.63;1.50;;;;;;;;;;6174677;23;20375;-93
2023/09/24 01:27:35;;;;;;;1.47;1.37;;;;;;;;;;6176377;23;20379;-95
2023/09/24 01:30:13;;;;;;;3.50;1.93;;;;;;;;;;6175964;23;20421;-94
2023/09/24 01:32:40;;;;;;;1.60;1.30;;;;;;;;;;6204050;23;20375;-94
2023/09/24 01:35:07;;;;;;;6.50;1.73;;;;;;;;;;6174753;23;20772;-95
2023/09/24 01:37:33;;;;;;;2.47;2.10;;;;;;;;;;6175769;23;20389;-93
2023/09/24 01:40:14;;;;;;;3.00;1.47;;;;;;;;;;6177275;23;20435;-93
2023/09/24 01:42:42;;;;;;;1.63;1.40;;;;;;;;;;6113384;23;20382;-92
2023/09/24 01:45:09;;;;;;;1.77;1.67;;;;;;;;;;6110652;23;20378;-93
2023/09/24 01:47:36;;;;;;;4.20;1.53;;;;;;;;;;6132831;23;20440;-94
2023/09/24 01:50:06;;;;;;;2.00;1.40;;;;;;;;;;6170250;23;20948;-94
2023/09/24 01:52:34;;;;;;;3.90;1.60;;;;;;;;;;6142377;23;20435;-93
2023/09/24 01:55:01;;;;;;;4.70;1.90;;;;;;;;;;6140161;23;20393;-93
2023/09/24 01:57:28;;;;;;;4.90;1.87;;;;;;;;;;6142204;23;20385;-94
2023/09/24 01:59:56;;;;;;;3.47;1.97;;;;;;;;;;6143036;23;20420;-94
2023/09/24 02:02:22;;;;;;;2.40;1.70;;;;;;;;;;6142958;23;20424;-93
2023/09/24 02:04:48;;;;;;;1.70;1.33;;;;;;;;;;6146349;23;20409;-95
2023/09/24 02:07:16;;;;;;;2.13;1.40;;;;;;;;;;6145370;23;20383;-94
2023/09/24 02:09:42;;;;;;;1.83;1.40;;;;;;;;;;6144349;23;20460;-92
2023/09/24 02:12:09;;;;;;;6.43;2.13;;;;;;;;;;6145664;23;20389;-93
2023/09/24 02:14:35;;;;;;;3.07;2.00;;;;;;;;;;6196246;23;20465;-93
2023/09/24 02:17:02;;;;;;;2.80;2.00;;;;;;;;;;6180163;23;20479;-93
2023/09/24 02:19:28;;;;;;;3.53;1.10;;;;;;;;;;6178947;23;20501;-93
2023/09/24 02:21:54;;;;;;;1.87;1.37;;;;;;;;;;6179373;23;20482;-93
2023/09/24 02:24:20;;;;;;;1.70;1.60;;;;;;;;;;6233744;22;20381;-94
2023/09/24 02:26:46;;;;;;;4.30;1.60;;;;;;;;;;6267381;22;20395;-93
2023/09/24 02:29:16;;;;;;;1.40;1.30;;;;;;;;;;6239690;22;20385;-92
2023/09/24 02:31:42;;;;;;;1.30;1.20;;;;;;;;;;6242461;22;20456;-92
2023/09/24 02:34:08;;;;;;;2.07;1.43;;;;;;;;;;6241500;22;20416;-92
2023/09/24 02:36:34;;;;;;;2.13;1.87;;;;;;;;;;6243417;22;20373;-93
2023/09/24 02:39:00;;;;;;;3.27;1.80;;;;;;;;;;6240306;22;20423;-93
2023/09/24 02:41:26;;;;;;;1.33;1.23;;;;;;;;;;6241270;22;20485;-93
2023/09/24 02:43:54;;;;;;;2.03;1.57;;;;;;;;;;6240959;22;20397;-92
2023/09/24 02:46:20;;;;;;;2.20;1.60;;;;;;;;;;6241990;22;20393;-93
2023/09/24 02:48:46;;;;;;;3.07;2.30;;;;;;;;;;6204044;23;20387;-94
2023/09/24 02:51:13;;;;;;;3.50;1.43;;;;;;;;;;6180476;23;20374;-94
2023/09/24 02:53:41;;;;;;;1.90;1.53;;;;;;;;;;6179407;23;20397;-94
2023/09/24 02:56:08;;;;;;;7.93;2.50;;;;;;;;;;6181296;23;20382;-94
2023/09/24 02:58:34;;;;;;;1.97;1.53;;;;;;;;;;6114466;23;20425;-95
2023/09/24 03:01:02;;;;;;;2.13;1.80;;;;;;;;;;6091210;23;20390;-94
2023/09/24 03:03:29;;;;;;;1.67;1.43;;;;;;;;;;6140505;23;20402;-92
2023/09/24 03:05:55;;;;;;;2.27;2.07;;;;;;;;;;6091411;23;20420;-93
2023/09/24 03:08:23;;;;;;;2.10;1.90;;;;;;;;;;6117357;23;20450;-93
2023/09/24 03:10:51;;;;;;;2.47;1.70;;;;;;;;;;6096377;23;20373;-94
2023/09/24 03:13:17;;;;;;;2.30;1.80;;;;;;;;;;6095300;23;20466;-94
2023/09/24 03:15:43;;;;;;;2.90;1.80;;;;;;;;;;6095803;23;20394;-94
2023/09/24 03:18:09;;;;;;;2.73;1.70;;;;;;;;;;6094745;23;20424;-95
2023/09/24 03:20:36;;;;;;;2.30;1.40;;;;;;;;;;6143101;23;20372;-96
2023/09/24 03:23:08;;;;;;;1.50;1.30;;;;;;;;;;6175949;23;20744;-94
2023/09/24 03:25:34;;;;;;;1.47;1.37;;;;;;;;;;6175043;23;20386;-93
2023/09/24 03:28:03;;;;;;;2.80;1.40;;;;;;;;;;6172807;23;20416;-93
2023/09/24 03:30:29;;;;;;;2.10;1.60;;;;;;;;;;6232857;22;20385;-95
2023/09/24 03:32:55;;;;;;;2.30;2.10;;;;;;;;;;6242916;22;20389;-93
2023/09/24 03:35:23;;;;;;;1.93;1.40;;;;;;;;;;6238108;22;20868;-95
2023/09/24 03:37:49;;;;;;;2.50;1.50;;;;;;;;;;6243205;22;20400;-94
2023/09/24 03:40:19;;;;;;;1.70;1.50;;;;;;;;;;6262399;22;20377;-95
2023/09/24 03:42:45;;;;;;;1.83;1.70;;;;;;;;;;6237389;22;20397;-94
2023/09/24 03:45:12;;;;;;;2.40;1.40;;;;;;;;;;6237305;22;20369;-94
2023/09/24 03:47:41;;;;;;;2.57;1.60;;;;;;;;;;6237212;22;20412;-95
2023/09/24 03:50:12;;;;;;;1.53;1.13;;;;;;;;;;6237210;22;20399;-93
2023/09/24 03:52:38;;;;;;;1.53;1.27;;;;;;;;;;6239244;22;20385;-92
2023/09/24 03:55:05;;;;;;;1.60;1.50;;;;;;;;;;6235326;22;20373;-94
2023/09/24 03:57:31;;;;;;;4.10;1.53;;;;;;;;;;6235933;22;20397;-94
2023/09/24 03:59:57;;;;;;;2.17;1.30;;;;;;;;;;6235739;22;20424;-93
2023/09/24 04:02:23;;;;;;;1.80;1.30;;;;;;;;;;6237490;22;20373;-94
2023/09/24 04:04:50;;;;;;;2.33;1.73;;;;;;;;;;6238546;22;20398;-95
2023/09/24 04:07:17;;;;;;;1.50;1.40;;;;;;;;;;6262535;22;20437;-96
2023/09/24 04:09:43;;;;;;;1.67;1.30;;;;;;;;;;6236250;22;20377;-95
2023/09/24 04:12:09;;;;;;;2.50;1.93;;;;;;;;;;6241780;22;20386;-93
2023/09/24 04:14:36;;;;;;;3.00;1.37;;;;;;;;;;6238004;22;20395;-94
2023/09/24 04:17:02;;;;;;;1.53;1.43;;;;;;;;;;6236163;22;20880;-93
2023/09/24 04:19:29;;;;;;;7.80;2.10;;;;;;;;;;6236757;22;20440;-91
2023/09/24 04:21:56;;;;;;;1.80;1.70;;;;;;;;;;6238318;22;20938;-95
2023/09/24 04:24:22;;;;;;;1.50;1.40;;;;;;;;;;6239561;22;20869;-93
2023/09/24 04:26:48;;;;;;;1.63;1.10;;;;;;;;;;6235793;22;20449;-93
2023/09/24 04:29:17;;;;;;;4.37;1.37;;;;;;;;;;6237644;22;20439;-93
2023/09/24 04:31:43;;;;;;;1.50;1.40;;;;;;;;;;6233879;22;20800;-93
2023/09/24 04:34:12;;;;;;;1.53;1.10;;;;;;;;;;6232840;22;20384;-92
2023/09/24 04:36:38;;;;;;;1.40;1.30;;;;;;;;;;6237382;22;20461;-92
2023/09/24 04:39:13;;;;;;;1.53;1.40;;;;;;;;;;6235064;22;20408;-93
2023/09/24 04:41:40;;;;;;;3.10;1.70;;;;;;;;;;6235104;22;20389;-94
2023/09/24 04:44:07;;;;;;;5.03;1.37;;;;;;;;;;6240002;22;20391;-94
2023/09/24 04:46:33;;;;;;;4.10;1.50;;;;;;;;;;6233340;22;20384;-94
2023/09/24 04:49:04;;;;;;;3.77;1.63;;;;;;;;;;6234564;22;20386;-92
2023/09/24 04:51:30;;;;;;;3.33;1.37;;;;;;;;;;6234359;22;20369;-92
2023/09/24 04:53:56;;;;;;;3.37;1.73;;;;;;;;;;6234814;22;20492;-92
2023/09/24 04:56:22;;;;;;;1.33;1.20;;;;;;;;;;6234548;22;20380;-93
2023/09/24 04:58:48;;;;;;;4.33;1.90;;;;;;;;;;6234062;22;20428;-94
2023/09/24 05:01:14;;;;;;;1.90;1.40;;;;;;;;;;6234091;22;20374;-92
2023/09/24 05:03:42;;;;;;;6.30;1.60;;;;;;;;;;6235887;22;20373;-93
2023/09/24 05:06:08;;;;;;;3.17;1.07;;;;;;;;;;6234901;22;20898;-92
2023/09/24 05:08:34;;;;;;;1.30;1.10;;;;;;;;;;6235351;22;20377;-93
2023/09/24 05:11:00;;;;;;;1.40;1.30;;;;;;;;;;6234630;22;20374;-93
2023/09/24 05:13:26;;;;;;;3.07;2.27;;;;;;;;;;6236551;22;20396;-93
2023/09/24 05:15:54;;;;;;;3.93;1.40;;;;;;;;;;6235069;22;20481;-92
2023/09/24 05:18:23;;;;;;;4.03;1.77;;;;;;;;;;6233927;22;20424;-93
2023/09/24 05:20:49;;;;;;;6.80;1.60;;;;;;;;;;6235292;22;20385;-95
2023/09/24 05:23:15;;;;;;;8.30;2.17;;;;;;;;;;6234812;22;20380;-93
2023/09/24 05:25:41;;;;;;;1.90;1.80;;;;;;;;;;6234259;22;20381;-93
2023/09/24 05:28:10;;;;;;;2.70;1.30;;;;;;;;;;6236625;22;20425;-91
2023/09/24 05:30:36;;;;;;;3.13;1.77;;;;;;;;;;6260693;22;20358;-93
2023/09/24 05:33:03;;;;;;;1.90;1.60;;;;;;;;;;6233630;22;20405;-94
2023/09/24 05:35:30;;;;;;;3.00;1.57;;;;;;;;;;6234759;22;20845;-93
2023/09/24 05:37:56;;;;;;;3.17;1.70;;;;;;;;;;6232620;22;20683;-92
2023/09/24 05:40:22;;;;;;;1.90;1.77;;;;;;;;;;6235402;22;20381;-94
2023/09/24 05:42:48;;;;;;;3.27;2.13;;;;;;;;;;6234504;22;20806;-95
2023/09/24 05:45:14;;;;;;;4.70;1.73;;;;;;;;;;6238269;22;20393;-92
2023/09/24 05:47:40;;;;;;;2.10;1.80;;;;;;;;;;6234099;22;20388;-92
2023/09/24 05:50:06;;;;;;;3.20;2.20;;;;;;;;;;6235387;22;20373;-92
2023/09/24 05:52:32;;;;;;;2.60;1.70;;;;;;;;;;6235413;22;20423;-92
2023/09/24 05:54:58;;;;;;;3.90;1.80;;;;;;;;;;6233924;22;20385;-93
2023/09/24 05:57:29;;;;;;;1.90;1.70;;;;;;;;;;6233262;22;20435;-92
2023/09/24 05:59:56;;;;;;;4.17;2.00;;;;;;;;;;6236994;22;20506;-93
2023/09/24 06:02:25;;;;;;;4.33;1.60;;;;;;;;;;6233794;22;20385;-91
2023/09/24 06:04:51;;;;;;;3.07;2.47;;;;;;;;;;6235704;22;20374;-93
2023/09/24 06:07:17;;;;;;;3.00;2.60;;;;;;;;;;6233092;22;20502;-92
2023/09/24 06:09:43;;;;;;;3.60;2.30;;;;;;;;;;6238357;22;20413;-93
2023/09/24 06:12:09;;;;;;;2.50;2.03;;;;;;;;;;6234859;22;20393;-94
2023/09/24 06:14:40;;;;;;;1.80;1.70;;;;;;;;;;6237937;22;20396;-94
2023/09/24 06:17:06;;;;;;;3.23;2.10;;;;;;;;;;6234839;22;20389;-94
2023/09/24 06:19:32;;;;;;;3.17;2.23;;;;;;;;;;6234724;22;20409;-93
2023/09/24 06:21:59;;;;;;;3.43;2.17;;;;;;;;;;6240431;22;20366;-94
2023/09/24 06:24:26;;;;;;;1.90;1.63;;;;;;;;;;6227946;23;20390;-93
2023/09/24 06:26:52;;;;;;;3.00;1.73;;;;;;;;;;6171151;23;20391;-92
2023/09/24 06:29:19;;;;;;;2.10;1.70;;;;;;;;;;6171012;23;20474;-91
2023/09/24 06:31:47;;;;;;;3.40;1.60;;;;;;;;;;6172052;23;20990;-92
2023/09/24 06:34:13;;;;;;;3.13;1.87;;;;;;;;;;6172854;23;20375;-93
2023/09/24 06:36:39;;;;;;;3.20;1.53;;;;;;;;;;6171345;23;20403;-93
2023/09/24 06:39:09;;;;;;;6.47;2.30;;;;;;;;;;6172339;23;20418;-93
2023/09/24 06:41:35;;;;;;;5.30;1.83;;;;;;;;;;6171253;23;20409;-93
2023/09/24 06:44:01;;;;;;;2.50;2.27;;;;;;;;;;6174169;23;20765;-94
2023/09/24 06:46:27;;;;;;;1.90;1.70;;;;;;;;;;6170472;23;20441;-94
2023/09/24 06:48:53;;;;;;;9.70;2.13;;;;;;;;;;6176324;23;20747;-93
2023/09/24 06:51:20;;;;;;;3.23;1.90;;;;;;;;;;6171902;23;20387;-93
2023/09/24 06:53:46;;;;;;;1.77;1.67;;;;;;;;;;6173700;23;20403;-94
2023/09/24 06:56:12;;;;;;;2.70;2.30;;;;;;;;;;6171273;23;20474;-93
2023/09/24 06:58:38;;;;;;;5.40;1.87;;;;;;;;;;6171115;23;20685;-94
2023/09/24 07:01:05;;;;;;;2.50;1.93;;;;;;;;;;6171050;23;20375;-93
2023/09/24 07:03:32;;;;;;;3.50;2.00;;;;;;;;;;6173384;23;20461;-94
2023/09/24 07:05:58;;;;;;;3.30;1.90;;;;;;;;;;6174010;23;20375;-94
2023/09/24 07:08:24;;;;;;;4.30;1.90;;;;;;;;;;6208539;22;20395;-94
2023/09/24 07:11:13;;;;;;;3.33;2.37;;;;;;;;;;6233887;22;20453;-94
2023/09/24 07:13:39;;;;;;;4.37;1.90;;;;;;;;;;6260533;22;20500;-95
2023/09/24 07:16:06;;;;;;;4.13;3.00;;;;;;;;;;6233788;22;20407;-94
2023/09/24 07:21:07;;;;;;;2.10;1.77;;;;;;;;;;6261038;22;20424;-94
2023/09/24 07:23:33;;;;;;;2.00;1.73;;;;;;;;;;6208136;23;20362;-93
2023/09/24 07:25:59;;;;;;;2.70;2.23;;;;;;;;;;6202088;23;20389;-92
2023/09/24 07:28:27;;;;;;;2.97;1.90;;;;;;;;;;6205339;23;20370;-91
2023/09/24 07:30:53;;;;;;;1.93;1.80;;;;;;;;;;6204833;23;20866;-92
2023/09/24 07:33:20;;;;;;;4.50;2.63;;;;;;;;;;6201527;23;20378;-93
2023/09/24 07:35:46;;;;;;;2.80;2.60;;;;;;;;;;6229831;23;20381;-93
2023/09/24 07:38:13;;;;;;;2.60;2.00;;;;;;;;;;6203450;23;20373;-94
2023/09/24 07:40:39;;;;;;;2.43;2.03;;;;;;;;;;6201633;23;20797;-92
2023/09/24 07:43:08;;;;;;;1.93;1.80;;;;;;;;;;6202545;23;20393;-93
2023/09/24 07:45:35;;;;;;;2.10;1.77;;;;;;;;;;6203377;23;20378;-91
2023/09/24 07:48:02;;;;;;;2.33;2.13;;;;;;;;;;6188134;23;20751;-92
2023/09/24 07:50:28;;;;;;;4.53;2.40;;;;;;;;;;6202973;23;20424;-91
2023/09/24 07:52:55;;;;;;;1.87;1.77;;;;;;;;;;6201699;23;20421;-93
2023/09/24 07:55:22;;;;;;;4.13;2.50;;;;;;;;;;6205921;23;20388;-92
2023/09/24 07:57:48;;;;;;;6.37;2.53;;;;;;;;;;6205058;23;20378;-91
2023/09/24 08:00:14;;;;;;;5.77;1.77;;;;;;;;;;6228825;23;20417;-92
2023/09/24 08:02:40;;;;;;;4.10;1.80;;;;;;;;;;6205977;23;20404;-92
2023/09/24 08:05:06;;;;;;;3.30;1.80;;;;;;;;;;6203327;23;20415;-90
2023/09/24 08:07:36;;;;;;;3.20;2.10;;;;;;;;;;6202273;23;20374;-90
2023/09/24 08:10:02;;;;;;;2.27;1.93;;;;;;;;;;6203026;23;20374;-90
2023/09/24 08:12:28;;;;;;;1.70;1.60;;;;;;;;;;6203421;23;20386;-90
2023/09/24 08:14:54;;;;;;;4.33;2.40;;;;;;;;;;6201437;23;20386;-90
2023/09/24 08:17:20;;;;;;;2.30;1.70;;;;;;;;;;6206209;23;20454;-92
2023/09/24 08:19:46;;;;;;;3.50;1.80;;;;;;;;;;6203032;23;20433;-90
2023/09/24 08:22:12;;;;;;;4.00;1.87;;;;;;;;;;6206111;23;20382;-92
2023/09/24 08:24:38;;;;;;;4.00;1.70;;;;;;;;;;6203022;23;20382;-90
2023/09/24 08:27:04;;;;;;;4.40;2.00;;;;;;;;;;6207989;23;20382;-90
2023/09/24 08:29:31;;;;;;;5.13;1.70;;;;;;;;;;6230145;23;20398;-91
2023/09/24 08:31:57;;;;;;;2.73;1.80;;;;;;;;;;6206406;23;20392;-91
2023/09/24 08:34:23;;;;;;;2.17;1.80;;;;;;;;;;6204590;23;20857;-90
2023/09/24 08:36:49;;;;;;;1.80;1.40;;;;;;;;;;6204927;23;20454;-90
2023/09/24 08:39:15;;;;;;;2.63;1.53;;;;;;;;;;6204095;23;20458;-91
2023/09/24 08:41:44;;;;;;;2.70;1.13;;;;;;;;;;6203366;23;20388;-90
2023/09/24 08:44:15;;;;;;;2.10;1.80;;;;;;;;;;6170134;23;20718;-91
2023/09/24 08:46:42;;;;;;;3.47;1.90;;;;;;;;;;6143510;23;20397;-90
2023/09/24 08:49:08;;;;;;;2.27;1.80;;;;;;;;;;6143983;23;20400;-91
2023/09/24 08:51:34;;;;;;;6.80;1.40;;;;;;;;;;6144540;23;20380;-91
2023/09/24 08:54:01;;;;;;;2.67;1.63;;;;;;;;;;6143747;23;20714;-91
2023/09/24 08:56:30;;;;;;;2.70;1.50;;;;;;;;;;6144785;23;20393;-92
2023/09/24 08:58:58;;;;;;;1.70;1.30;;;;;;;;;;6148169;23;20423;-91
2023/09/24 09:01:24;;;;;;;1.70;1.20;;;;;;;;;;6144707;23;20884;-92
2023/09/24 09:03:50;;;;;;;5.43;1.53;;;;;;;;;;6144725;23;20384;-92
2023/09/24 09:06:32;;;;;;;3.00;1.60;;;;;;;;;;6144546;23;20379;-93
2023/09/24 09:08:58;;;;;;;1.37;1.27;;;;;;;;;;6145021;23;20394;-92
2023/09/24 09:11:47;;;;;;;2.07;1.80;;;;;;;;;;6144642;23;20385;-92
2023/09/24 09:14:14;;;;;;;1.33;1.10;;;;;;;;;;6154851;22;20434;-93
2023/09/24 09:16:58;;;;;;;2.27;1.70;;;;;;;;;;6232315;23;21191;-92
2023/09/24 09:19:25;;;;;;;2.23;1.30;;;;;;;;;;6205402;23;20426;-92
2023/09/24 09:21:51;;;;;;;2.20;1.23;;;;;;;;;;6207101;23;20382;-94
2023/09/24 09:24:23;;;;;;;4.90;1.40;;;;;;;;;;6204008;23;20460;-93
2023/09/24 09:26:56;;;;;;;1.70;1.60;;;;;;;;;;6207705;23;20413;-93
2023/09/24 09:29:25;;;;;;;3.43;1.60;;;;;;;;;;6205187;23;20374;-93
2023/09/24 09:31:59;;;;;;;5.27;1.50;;;;;;;;;;6207806;23;20398;-91
2023/09/24 09:34:25;;;;;;;4.53;1.50;;;;;;;;;;6230795;23;20362;-93
2023/09/24 09:36:51;;;;;;;2.80;1.30;;;;;;;;;;6203704;23;20389;-93
2023/09/24 09:39:17;;;;;;;3.10;1.33;;;;;;;;;;6168280;23;20435;-92
2023/09/24 09:41:44;;;;;;;3.20;1.40;;;;;;;;;;6143937;23;20383;-93
2023/09/24 09:44:10;;;;;;;4.73;1.87;;;;;;;;;;6196444;23;20420;-92
2023/09/24 09:46:40;;;;;;;3.03;1.63;;;;;;;;;;6146381;23;20424;-91
2023/09/24 09:49:09;;;;;;;2.40;1.60;;;;;;;;;;6146738;23;20391;-92
2023/09/24 09:51:38;;;;;;;3.63;1.33;;;;;;;;;;6144220;23;20387;-91
2023/09/24 09:54:07;;;;;;;2.50;1.27;;;;;;;;;;6171436;23;20758;-93
2023/09/24 09:56:38;;;;;;;2.43;1.30;;;;;;;;;;6143680;23;20394;-91
2023/09/24 09:59:06;;;;;;;2.20;1.30;;;;;;;;;;6144202;23;20432;-92
2023/09/24 10:01:45;;;;;;;8.67;1.90;;;;;;;;;;6145620;23;20388;-91
2023/09/24 10:04:12;;;;;;;3.20;1.37;;;;;;;;;;6172198;23;20372;-93
2023/09/24 10:06:40;;;;;;;1.80;1.37;;;;;;;;;;6144534;23;20477;-91
2023/09/24 10:09:25;;;;;;;1.43;1.10;;;;;;;;;;6147050;23;20536;-92
2023/09/24 10:11:53;;;;;;;2.30;1.40;;;;;;;;;;6255532;23;20461;-92
2023/09/24 10:14:35;;;;;;;2.87;1.60;;;;;;;;;;6229052;23;20370;-92
2023/09/24 10:17:22;;;;;;;1.93;1.00;;;;;;;;;;6204872;23;20416;-93
2023/09/24 10:19:54;;;;;;;5.97;1.70;;;;;;;;;;6230137;23;20414;-92
2023/09/24 10:22:27;;;;;;;2.97;1.40;;;;;;;;;;6229728;23;20394;-92
2023/09/24 10:24:53;;;;;;;2.70;1.70;;;;;;;;;;6205168;23;20755;-91
2023/09/24 10:27:32;;;;;;;3.00;1.60;;;;;;;;;;6208821;23;20390;-92
2023/09/24 10:29:58;;;;;;;2.50;2.10;;;;;;;;;;6207264;23;20386;-92
2023/09/24 10:32:25;;;;;;;3.60;1.80;;;;;;;;;;6232645;23;20374;-92
2023/09/24 10:34:54;;;;;;;5.90;1.63;;;;;;;;;;6211171;23;20394;-93
2023/09/24 10:37:23;;;;;;;4.63;1.63;;;;;;;;;;6230083;23;20854;-93
2023/09/24 10:40:04;;;;;;;3.30;1.77;;;;;;;;;;6232764;23;20405;-93
2023/09/24 10:42:30;;;;;;;3.60;2.13;;;;;;;;;;6230939;23;20390;-93
2023/09/24 10:45:12;;;;;;;2.47;2.27;;;;;;;;;;6207330;23;20377;-94
2023/09/24 10:47:38;;;;;;;2.20;1.60;;;;;;;;;;6232403;23;20374;-93
2023/09/24 10:50:12;;;;;;;2.20;1.50;;;;;;;;;;6210469;23;20723;-94
2023/09/24 10:52:54;;;;;;;2.03;1.57;;;;;;;;;;6210023;23;20382;-93
2023/09/24 10:55:20;;;;;;;2.03;1.53;;;;;;;;;;6210176;23;20432;-93
2023/09/24 10:57:53;;;;;;;2.20;1.50;;;;;;;;;;6232981;22;20374;-92
2023/09/24 11:00:20;;;;;;;3.23;2.00;;;;;;;;;;6206212;23;20429;-93
2023/09/24 11:02:46;;;;;;;2.53;1.60;;;;;;;;;;6205552;23;20381;-94
2023/09/24 11:05:12;;;;;;;2.53;1.33;;;;;;;;;;6208955;23;20378;-94
2023/09/24 11:07:38;;;;;;;2.03;1.40;;;;;;;;;;6203325;23;20381;-94
2023/09/24 11:10:04;;;;;;;1.97;1.30;;;;;;;;;;6207554;23;20401;-94
2023/09/24 11:12:30;;;;;;;2.57;1.20;;;;;;;;;;6206317;23;20409;-93
2023/09/24 11:14:56;;;;;;;2.40;1.60;;;;;;;;;;6203183;23;20366;-94
2023/09/24 11:17:23;;;;;;;2.90;1.80;;;;;;;;;;6203624;23;20919;-92
2023/09/24 11:19:49;;;;;;;2.57;1.50;;;;;;;;;;6205790;23;20525;-92
2023/09/24 11:22:22;;;;;;;1.90;1.70;;;;;;;;;;6203450;23;20441;-93
2023/09/24 11:24:50;;;;;;;2.20;1.73;;;;;;;;;;6204928;23;20390;-94
2023/09/24 11:27:17;;;;;;;2.57;1.27;;;;;;;;;;6167623;23;20380;-93
2023/09/24 11:30:10;;;;;;;2.20;1.67;;;;;;;;;;6168315;23;20388;-95
2023/09/24 11:32:36;;;;;;;4.10;1.80;;;;;;;;;;6163555;23;20458;-93
2023/09/24 11:35:28;;;;;;;2.60;1.67;;;;;;;;;;6171886;23;20376;-94
2023/09/24 11:37:56;;;;;;;3.07;1.50;;;;;;;;;;6173677;23;20376;-94
2023/09/24 11:40:28;;;;;;;2.53;1.17;;;;;;;;;;6170971;23;20423;-92
2023/09/24 11:42:57;;;;;;;2.57;1.60;;;;;;;;;;6170368;23;20450;-94
2023/09/24 11:45:35;;;;;;;2.77;1.43;;;;;;;;;;6170404;23;20379;-95
2023/09/24 11:48:03;;;;;;;2.60;1.33;;;;;;;;;;6197512;23;20372;-95
2023/09/24 11:50:29;;;;;;;3.50;1.47;;;;;;;;;;6169570;23;20395;-94
2023/09/24 11:52:56;;;;;;;2.73;1.77;;;;;;;;;;6177137;23;20383;-96
2023/09/24 11:55:22;;;;;;;6.17;1.43;;;;;;;;;;6174820;23;20444;-94
2023/09/24 11:57:48;;;;;;;7.43;2.00;;;;;;;;;;6191219;23;20374;-95
2023/09/24 12:00:19;;;;;;;2.47;1.53;;;;;;;;;;6206985;23;20481;-96
2023/09/24 12:02:47;;;;;;;2.30;1.20;;;;;;;;;;6237421;23;20421;-95
2023/09/24 12:05:13;;;;;;;3.70;1.97;;;;;;;;;;6208184;23;20416;-94
2023/09/24 12:44:00;;;;;;;2.93;1.87;;;;;;;;;;6256898;22;20425;-95
2023/09/24 12:46:26;;;;;;;2.87;1.60;;;;;;;;;;6204825;23;20408;-96
2023/09/24 12:48:54;;;;;;;2.60;1.67;;;;;;;;;;6229591;23;20377;-93
2023/09/24 12:51:20;;;;;;;3.40;1.80;;;;;;;;;;6205616;23;20362;-92
2023/09/24 12:53:46;;;;;;;3.13;1.70;;;;;;;;;;6206836;23;20373;-92
2023/09/24 12:56:12;;;;;;;3.50;1.90;;;;;;;;;;6205548;23;20370;-95
2023/09/24 12:58:38;;;;;;;2.40;1.33;;;;;;;;;;6206251;23;20422;-94
2023/09/24 13:01:04;;;;;;;2.60;1.50;;;;;;;;;;6204957;23;20374;-93
2023/09/24 13:03:31;;;;;;;3.50;1.80;;;;;;;;;;6230471;23;20366;-92
2023/09/24 13:05:59;;;;;;;3.73;1.40;;;;;;;;;;6207110;22;20385;-92
2023/09/24 13:08:27;;;;;;;2.23;1.30;;;;;;;;;;6238956;23;20334;-93
2023/09/24 13:10:54;;;;;;;2.20;1.40;;;;;;;;;;6231136;23;20378;-93
2023/09/24 13:13:20;;;;;;;4.77;1.73;;;;;;;;;;6207809;22;20398;-93
2023/09/24 13:15:46;;;;;;;3.33;1.33;;;;;;;;;;6215783;23;20408;-94
2023/09/24 13:18:15;;;;;;;2.57;1.40;;;;;;;;;;6210950;23;20496;-93
2023/09/24 13:20:42;;;;;;;3.23;2.23;;;;;;;;;;6236352;23;20381;-92
2023/09/24 13:23:08;;;;;;;2.30;1.60;;;;;;;;;;6216885;23;20366;-92
2023/09/24 13:25:34;;;;;;;2.03;1.30;;;;;;;;;;6209868;23;21015;-94
2023/09/24 13:28:00;;;;;;;2.80;1.90;;;;;;;;;;6207382;23;20413;-94
2023/09/24 13:30:27;;;;;;;3.50;1.70;;;;;;;;;;6206466;23;20450;-95
2023/09/24 13:32:52;;;;;;;2.07;1.57;;;;;;;;;;6207544;23;20383;-95
2023/09/24 13:37:54;;;;;;;3.70;1.60;;;;;;;;;;6248873;22;20437;-95
2023/09/24 13:40:20;;;;;;;2.10;1.40;;;;;;;;;;6208631;22;20412;-94
2023/09/24 13:42:52;;;;;;;2.57;1.80;;;;;;;;;;6209777;23;20382;-95
2023/09/24 13:45:18;;;;;;;2.07;1.33;;;;;;;;;;6206048;23;20394;-93
2023/09/24 13:47:45;;;;;;;3.10;1.50;;;;;;;;;;6211102;23;20391;-94
2023/09/24 13:50:18;;;;;;;4.90;1.50;;;;;;;;;;6209291;23;20397;-95
2023/09/24 13:52:48;;;;;;;2.10;1.30;;;;;;;;;;6189094;23;20384;-92
2023/09/24 13:55:14;;;;;;;2.47;1.20;;;;;;;;;;6209111;23;20401;-92
2023/09/24 13:57:40;;;;;;;2.60;1.10;;;;;;;;;;6204518;23;20382;-91
2023/09/24 14:00:07;;;;;;;3.57;1.47;;;;;;;;;;6229959;23;20401;-93
2023/09/24 14:02:35;;;;;;;2.47;1.47;;;;;;;;;;6214339;22;20362;-92
2023/09/24 14:05:01;;;;;;;3.03;1.57;;;;;;;;;;6193791;23;20370;-95
2023/09/24 14:07:27;;;;;;;3.30;1.30;;;;;;;;;;6206399;23;20706;-93
2023/09/24 14:12:38;;;;;;;2.67;1.30;;;;;;;;;;6236048;23;20382;-91
2023/09/24 14:15:04;;;;;;;1.93;1.13;;;;;;;;;;6212676;23;20424;-92
2023/09/24 14:17:32;;;;;;;2.23;1.40;;;;;;;;;;6218658;23;20394;-94
2023/09/24 14:19:58;;;;;;;1.90;1.40;;;;;;;;;;6207290;23;20425;-91
2023/09/24 14:22:24;;;;;;;3.40;1.97;;;;;;;;;;6214935;23;20398;-93
2023/09/24 14:24:50;;;;;;;1.83;1.20;;;;;;;;;;6217119;23;20416;-92
2023/09/24 14:27:17;;;;;;;2.67;1.47;;;;;;;;;;6242783;23;20385;-95
2023/09/24 14:29:43;;;;;;;2.80;1.43;;;;;;;;;;6204987;23;20408;-93
2023/09/24 14:32:09;;;;;;;3.20;1.50;;;;;;;;;;6205736;23;20378;-94
2023/09/24 14:34:35;;;;;;;2.20;1.60;;;;;;;;;;6204641;23;20378;-94
2023/09/24 14:37:01;;;;;;;1.93;1.33;;;;;;;;;;6203248;23;21042;-95
2023/09/24 14:39:27;;;;;;;2.13;1.20;;;;;;;;;;6206290;23;20985;-94
2023/09/24 14:41:54;;;;;;;2.77;1.53;;;;;;;;;;6203314;23;20382;-92
2023/09/24 14:44:20;;;;;;;1.97;1.37;;;;;;;;;;6202804;23;20402;-93
2023/09/24 14:46:47;;;;;;;2.13;1.30;;;;;;;;;;6206967;23;20382;-92
2023/09/24 14:49:13;;;;;;;2.37;1.60;;;;;;;;;;6202791;23;20383;-93
2023/09/24 14:51:39;;;;;;;3.40;1.80;;;;;;;;;;6202274;23;20459;-93
2023/09/24 14:54:05;;;;;;;1.80;1.20;;;;;;;;;;6205550;23;20374;-92
2023/09/24 14:56:34;;;;;;;3.07;1.80;;;;;;;;;;6201558;23;20378;-94
2023/09/24 14:59:00;;;;;;;3.60;1.70;;;;;;;;;;6204284;23;20821;-93
2023/09/24 15:01:26;;;;;;;2.40;1.37;;;;;;;;;;6200448;23;20378;-93
2023/09/24 15:03:52;;;;;;;1.83;1.30;;;;;;;;;;6203545;23;20556;-92
2023/09/24 15:06:18;;;;;;;2.20;1.10;;;;;;;;;;6202696;23;20400;-92
2023/09/24 15:08:44;;;;;;;2.40;1.33;;;;;;;;;;6203371;23;20382;-93
2023/09/24 15:11:10;;;;;;;2.60;1.50;;;;;;;;;;6202525;23;20441;-93
2023/09/24 15:13:37;;;;;;;2.80;1.60;;;;;;;;;;6204086;23;20385;-93
2023/09/24 15:16:04;;;;;;;2.40;1.50;;;;;;;;;;6203791;23;20400;-91
2023/09/24 15:18:30;;;;;;;2.43;1.30;;;;;;;;;;6206309;23;20711;-93
2023/09/24 15:20:56;;;;;;;1.90;1.20;;;;;;;;;;6205630;23;20358;-94
2023/09/24 15:23:23;;;;;;;5.90;1.20;;;;;;;;;;6205413;23;20396;-92
2023/09/24 15:25:49;;;;;;;2.40;1.20;;;;;;;;;;6207309;23;20928;-92
2023/09/24 15:28:15;;;;;;;1.87;1.07;;;;;;;;;;6205147;23;20378;-94
2023/09/24 15:30:41;;;;;;;2.80;1.63;;;;;;;;;;6234034;23;20890;-93